Time;durP1;ratioP1;P1;durP2;ratioP2;P2;SDS_P1;SDS_P2;PMS_P1;PMS_P2;Temp;Humidity;BMP_temperature;BMP_pressure;BME280_temperature;BME280_humidity;BME280_pressure;Samples;Min_cycle;Max_cycle;Signal;HPM_P1;HPM_P2
2022/07/16 00:01:55;;;;;;;;;;;15.90;96.70;;;;;;5119206;27;19954;-74
2022/07/16 00:04:23;;;;;;;;;;;15.80;96.80;;;;;;5142227;27;20016;-73
2022/07/16 00:06:50;;;;;;;;;;;15.70;96.90;;;;;;5146644;27;19919;-73
2022/07/16 00:09:16;;;;;;;;;;;15.70;97.00;;;;;;5147394;27;19926;-74
2022/07/16 00:11:43;;;;;;;;;;;15.60;97.10;;;;;;5117161;27;19920;-73
2022/07/16 00:14:12;;;;;;;;;;;15.50;97.10;;;;;;5105295;28;19983;-72
2022/07/16 00:16:39;;;;;;;;;;;15.50;97.20;;;;;;5125089;27;19920;-73
2022/07/16 00:19:18;;;;;;;;;;;15.50;97.30;;;;;;5127481;27;20001;-72
2022/07/16 00:21:46;;;;;;;;;;;15.40;97.40;;;;;;5117440;27;19994;-73
2022/07/16 00:24:13;;;;;;;;;;;15.40;97.50;;;;;;5111427;27;20227;-73
2022/07/16 00:26:44;;;;;;;;;;;15.30;97.60;;;;;;5126289;28;19951;-73
2022/07/16 00:29:11;;;;;;;;;;;15.20;97.70;;;;;;5123771;27;19965;-73
2022/07/16 00:31:37;;;;;;;;;;;15.20;97.90;;;;;;5126181;28;19924;-73
2022/07/16 00:34:07;;;;;;;;;;;15.10;97.90;;;;;;5138560;27;19955;-74
2022/07/16 00:36:37;;;;;;;;;;;15.00;98.00;;;;;;5144940;27;20028;-73
2022/07/16 00:39:06;;;;;;;;;;;15.00;98.20;;;;;;5139190;27;19996;-74
2022/07/16 00:41:33;;;;;;;;;;;15.00;98.40;;;;;;5114213;28;19920;-73
2022/07/16 00:44:02;;;;;;;;;;;14.90;98.50;;;;;;5118513;27;19963;-73
2022/07/16 00:46:29;;;;;;;;;;;14.90;98.60;;;;;;5140648;27;20213;-72
2022/07/16 00:48:56;;;;;;;;;;;14.90;98.80;;;;;;5146463;27;19920;-73
2022/07/16 00:51:23;;;;;;;;;;;14.80;98.90;;;;;;5146146;27;19942;-72
2022/07/16 00:53:50;;;;;;;;;;;14.80;99.10;;;;;;5130438;27;19920;-74
2022/07/16 00:56:18;;;;;;;;;;;14.80;99.20;;;;;;5125626;28;20256;-72
2022/07/16 00:58:46;;;;;;;;;;;14.70;99.30;;;;;;5125567;27;19947;-73
2022/07/16 01:01:13;;;;;;;;;;;14.70;99.60;;;;;;5125569;28;19954;-74
2022/07/16 01:03:40;;;;;;;;;;;14.60;99.80;;;;;;5128048;27;19987;-74
2022/07/16 01:06:08;;;;;;;;;;;14.50;99.80;;;;;;5111442;27;19966;-73
2022/07/16 01:08:35;;;;;;;;;;;14.50;99.90;;;;;;5109565;28;19920;-73
2022/07/16 01:11:02;;;;;;;;;;;14.40;99.90;;;;;;5145600;27;19920;-73
2022/07/16 01:13:31;;;;;;;;;;;14.40;99.90;;;;;;5143807;27;20323;-73
2022/07/16 01:15:57;;;;;;;;;;;14.30;99.90;;;;;;5134203;27;19920;-72
2022/07/16 01:18:24;;;;;;;;;;;14.30;99.90;;;;;;5126343;28;19947;-73
2022/07/16 01:20:51;;;;;;;;;;;14.30;99.90;;;;;;5125212;28;19965;-73
2022/07/16 01:23:20;;;;;;;;;;;14.20;99.90;;;;;;5124283;28;19957;-73
2022/07/16 01:25:47;;;;;;;;;;;14.10;99.90;;;;;;5125343;27;19924;-73
2022/07/16 01:28:13;;;;;;;;;;;14.00;99.90;;;;;;5125029;28;19990;-73
2022/07/16 01:30:40;;;;;;;;;;;14.00;99.90;;;;;;5135133;27;19986;-72
2022/07/16 01:33:18;;;;;;;;;;;14.00;99.90;;;;;;5128277;27;19983;-73
2022/07/16 01:35:45;;;;;;;;;;;14.00;99.90;;;;;;5128622;27;19994;-73
2022/07/16 01:38:12;;;;;;;;;;;13.90;99.90;;;;;;5119164;28;19927;-72
2022/07/16 01:40:40;;;;;;;;;;;13.90;99.90;;;;;;5124586;28;19954;-72
2022/07/16 01:43:12;;;;;;;;;;;13.90;99.90;;;;;;5138034;27;20044;-72
2022/07/16 01:45:39;;;;;;;;;;;13.90;99.90;;;;;;5129204;27;19926;-73
2022/07/16 01:48:06;;;;;;;;;;;13.80;99.90;;;;;;5129783;27;19926;-73
2022/07/16 01:50:33;;;;;;;;;;;13.80;99.90;;;;;;5124209;28;20100;-73
2022/07/16 01:52:59;;;;;;;;;;;13.80;99.90;;;;;;5123843;28;20092;-73
2022/07/16 01:55:26;;;;;;;;;;;13.80;99.90;;;;;;5120199;28;20265;-73
2022/07/16 01:57:54;;;;;;;;;;;13.70;99.90;;;;;;5117076;27;20012;-71
2022/07/16 02:00:21;;;;;;;;;;;13.70;99.90;;;;;;5124341;28;20272;-72
2022/07/16 02:02:47;;;;;;;;;;;13.60;99.90;;;;;;5136915;27;19941;-73
2022/07/16 02:05:14;;;;;;;;;;;13.50;99.90;;;;;;5144627;27;19951;-73
2022/07/16 02:07:41;;;;;;;;;;;13.50;99.90;;;;;;5132457;27;19987;-71
2022/07/16 02:10:08;;;;;;;;;;;13.50;99.90;;;;;;5104135;28;19948;-72
2022/07/16 02:12:34;;;;;;;;;;;13.40;99.90;;;;;;5116294;27;19987;-73
2022/07/16 02:15:02;;;;;;;;;;;13.40;99.90;;;;;;5136741;27;19950;-72
2022/07/16 02:17:29;;;;;;;;;;;13.40;99.90;;;;;;5144673;27;19926;-71
2022/07/16 02:19:56;;;;;;;;;;;13.30;99.90;;;;;;5132861;27;19979;-74
2022/07/16 02:22:23;;;;;;;;;;;13.30;99.90;;;;;;5123617;28;19926;-73
2022/07/16 02:24:50;;;;;;;;;;;13.30;99.90;;;;;;5123929;28;19995;-74
2022/07/16 02:27:16;;;;;;;;;;;13.30;99.90;;;;;;5124020;28;19920;-74
2022/07/16 02:29:43;;;;;;;;;;;13.30;99.90;;;;;;5123761;27;19955;-74
2022/07/16 02:32:11;;;;;;;;;;;13.20;99.90;;;;;;5122369;28;19919;-71
2022/07/16 02:34:38;;;;;;;;;;;13.20;99.90;;;;;;5127532;28;19955;-73
2022/07/16 02:37:04;;;;;;;;;;;13.20;99.90;;;;;;5123715;28;19951;-73
2022/07/16 02:39:32;;;;;;;;;;;13.20;99.90;;;;;;5123775;28;19920;-73
2022/07/16 02:41:58;;;;;;;;;;;13.10;99.90;;;;;;5124815;28;19983;-74
2022/07/16 02:44:25;;;;;;;;;;;13.00;99.90;;;;;;5125088;28;19978;-73
2022/07/16 02:46:52;;;;;;;;;;;12.90;99.90;;;;;;5124444;27;19926;-72
2022/07/16 02:49:20;;;;;;;;;;;12.80;99.90;;;;;;5128109;28;19926;-73
2022/07/16 02:51:46;;;;;;;;;;;12.70;99.90;;;;;;5128082;28;19920;-73
2022/07/16 02:54:13;;;;;;;;;;;12.60;99.90;;;;;;5127374;27;19919;-74
2022/07/16 02:56:40;;;;;;;;;;;12.60;99.90;;;;;;5114288;27;19970;-73
2022/07/16 02:59:07;;;;;;;;;;;12.70;99.90;;;;;;5125658;28;20273;-73
2022/07/16 03:01:34;;;;;;;;;;;12.60;99.90;;;;;;5128129;28;19962;-72
2022/07/16 03:04:01;;;;;;;;;;;12.60;99.90;;;;;;5127618;28;19942;-73
2022/07/16 03:06:29;;;;;;;;;;;12.60;99.90;;;;;;5127528;27;19951;-74
2022/07/16 03:08:55;;;;;;;;;;;12.60;99.90;;;;;;5127515;28;19920;-73
2022/07/16 03:11:22;;;;;;;;;;;12.60;99.90;;;;;;5127952;27;19920;-74
2022/07/16 03:13:49;;;;;;;;;;;12.60;99.90;;;;;;5129428;27;19919;-73
2022/07/16 03:16:15;;;;;;;;;;;12.60;99.90;;;;;;5148055;27;19926;-73
2022/07/16 03:18:42;;;;;;;;;;;12.60;99.90;;;;;;5141112;27;19982;-74
2022/07/16 03:21:08;;;;;;;;;;;12.50;99.90;;;;;;5145096;27;19920;-73
2022/07/16 03:23:36;;;;;;;;;;;12.50;99.90;;;;;;5125476;27;19942;-74
2022/07/16 03:26:04;;;;;;;;;;;12.50;99.90;;;;;;5131498;27;20147;-73
2022/07/16 03:28:30;;;;;;;;;;;12.50;99.90;;;;;;5126940;28;19998;-74
2022/07/16 03:30:57;;;;;;;;;;;12.40;99.90;;;;;;5140223;27;19920;-73
2022/07/16 03:33:23;;;;;;;;;;;12.30;99.90;;;;;;5147203;27;20115;-73
2022/07/16 03:35:50;;;;;;;;;;;12.20;99.90;;;;;;5144607;27;19994;-73
2022/07/16 03:41:02;;;;;;;;;;;12.00;99.90;;;;;;5122643;28;20005;-73
2022/07/16 03:43:29;;;;;;;;;;;11.90;99.90;;;;;;5133164;27;20057;-74
2022/07/16 03:45:56;;;;;;;;;;;11.90;99.90;;;;;;5147294;27;19949;-73
2022/07/16 03:48:22;;;;;;;;;;;11.90;99.90;;;;;;5145727;27;19926;-73
2022/07/16 03:50:49;;;;;;;;;;;12.00;99.90;;;;;;5147455;27;19943;-73
2022/07/16 03:53:15;;;;;;;;;;;12.00;99.90;;;;;;5132642;27;19951;-73
2022/07/16 03:55:42;;;;;;;;;;;12.00;99.90;;;;;;5110193;28;20172;-73
2022/07/16 03:58:10;;;;;;;;;;;12.00;99.90;;;;;;5129855;27;19964;-73
2022/07/16 04:00:37;;;;;;;;;;;12.00;99.90;;;;;;5147471;27;19919;-73
2022/07/16 04:03:03;;;;;;;;;;;12.00;99.90;;;;;;5134497;27;19947;-73
2022/07/16 04:05:30;;;;;;;;;;;12.00;99.90;;;;;;5126280;28;20274;-73
2022/07/16 04:07:57;;;;;;;;;;;12.10;99.90;;;;;;5107533;28;19995;-73
2022/07/16 04:10:23;;;;;;;;;;;12.00;99.90;;;;;;5105978;28;20166;-73
2022/07/16 04:12:50;;;;;;;;;;;12.00;99.90;;;;;;5123649;28;20271;-72
2022/07/16 04:15:18;;;;;;;;;;;12.10;99.90;;;;;;5127346;27;19920;-73
2022/07/16 04:17:45;;;;;;;;;;;12.10;99.90;;;;;;5115627;27;20118;-72
2022/07/16 04:20:11;;;;;;;;;;;12.20;99.90;;;;;;5126177;28;20203;-73
2022/07/16 04:22:38;;;;;;;;;;;12.20;99.90;;;;;;5127834;27;20404;-73
2022/07/16 04:25:05;;;;;;;;;;;12.20;99.90;;;;;;5146471;27;19928;-73
2022/07/16 04:27:32;;;;;;;;;;;12.20;99.90;;;;;;5133537;27;20233;-73
2022/07/16 04:29:59;;;;;;;;;;;12.10;99.90;;;;;;5125966;28;19927;-73
2022/07/16 04:32:27;;;;;;;;;;;12.20;99.90;;;;;;5125619;27;19947;-73
2022/07/16 04:34:54;;;;;;;;;;;12.30;99.90;;;;;;5129268;27;19925;-73
2022/07/16 04:37:20;;;;;;;;;;;12.30;99.90;;;;;;5146246;27;19919;-73
2022/07/16 04:39:47;;;;;;;;;;;12.30;99.90;;;;;;5119019;27;19928;-72
2022/07/16 04:42:13;;;;;;;;;;;12.30;99.90;;;;;;5117259;27;19955;-73
2022/07/16 04:44:40;;;;;;;;;;;12.40;99.90;;;;;;5125573;28;19958;-73
2022/07/16 04:47:07;;;;;;;;;;;12.40;99.90;;;;;;5129910;27;19962;-73
2022/07/16 04:49:35;;;;;;;;;;;12.50;99.90;;;;;;5125329;28;19920;-72
2022/07/16 04:52:01;;;;;;;;;;;12.50;99.90;;;;;;5126221;27;19924;-73
2022/07/16 04:54:28;;;;;;;;;;;12.60;99.90;;;;;;5125152;28;20174;-73
2022/07/16 04:56:56;;;;;;;;;;;12.60;99.90;;;;;;5123078;28;20007;-73
2022/07/16 04:59:22;;;;;;;;;;;12.70;99.90;;;;;;5125700;28;19958;-73
2022/07/16 05:01:49;;;;;;;;;;;12.80;99.90;;;;;;5125423;28;19950;-73
2022/07/16 05:04:16;;;;;;;;;;;12.90;99.90;;;;;;5123815;28;19986;-73
2022/07/16 05:06:44;;;;;;;;;;;13.00;99.90;;;;;;5125126;28;19920;-73
2022/07/16 05:09:11;;;;;;;;;;;13.10;99.90;;;;;;5124630;28;19926;-73
2022/07/16 05:11:38;;;;;;;;;;;13.30;99.90;;;;;;5125138;28;19958;-73
2022/07/16 05:14:04;;;;;;;;;;;13.30;99.90;;;;;;5125366;28;19920;-74
2022/07/16 05:16:31;;;;;;;;;;;13.40;99.90;;;;;;5131870;27;19990;-73
2022/07/16 05:18:57;;;;;;;;;;;13.50;99.90;;;;;;5125045;28;19920;-73
2022/07/16 05:21:24;;;;;;;;;;;13.60;99.90;;;;;;5125043;28;19944;-73
2022/07/16 05:23:53;;;;;;;;;;;13.70;99.90;;;;;;5131168;27;19927;-73
2022/07/16 05:26:21;;;;;;;;;;;13.70;99.90;;;;;;5146045;27;19939;-74
2022/07/16 05:28:47;;;;;;;;;;;13.70;99.90;;;;;;5145605;27;19919;-71
2022/07/16 05:31:14;;;;;;;;;;;13.80;99.90;;;;;;5145799;27;19920;-72
2022/07/16 05:33:41;;;;;;;;;;;13.90;99.90;;;;;;5145118;27;19927;-71
2022/07/16 05:36:08;;;;;;;;;;;13.90;99.90;;;;;;5144943;27;19945;-72
2022/07/16 05:38:35;;;;;;;;;;;13.90;99.90;;;;;;5133234;27;19920;-71
2022/07/16 05:41:03;;;;;;;;;;;14.10;99.90;;;;;;5128183;27;19932;-71
2022/07/16 05:43:29;;;;;;;;;;;14.20;99.90;;;;;;5120397;28;19987;-72
2022/07/16 05:45:56;;;;;;;;;;;14.30;99.90;;;;;;5125837;27;19928;-72
2022/07/16 05:48:23;;;;;;;;;;;14.50;99.90;;;;;;5112703;28;20212;-72
2022/07/16 05:50:49;;;;;;;;;;;14.70;99.90;;;;;;5123830;28;19920;-72
2022/07/16 05:53:16;;;;;;;;;;;14.90;99.90;;;;;;5120256;27;19928;-72
2022/07/16 05:55:43;;;;;;;;;;;15.00;99.90;;;;;;5124027;28;19983;-72
2022/07/16 05:58:12;;;;;;;;;;;15.10;99.90;;;;;;5129967;27;19950;-72
2022/07/16 06:00:38;;;;;;;;;;;15.30;99.90;;;;;;5116512;27;19962;-72
2022/07/16 06:03:05;;;;;;;;;;;15.40;99.90;;;;;;5124233;28;19955;-72
2022/07/16 06:05:32;;;;;;;;;;;15.40;99.90;;;;;;5116179;28;19931;-72
2022/07/16 06:07:58;;;;;;;;;;;15.60;99.90;;;;;;5127588;27;20179;-72
2022/07/16 06:10:25;;;;;;;;;;;15.70;99.90;;;;;;5124444;28;20123;-72
2022/07/16 06:12:52;;;;;;;;;;;15.70;99.90;;;;;;5123414;28;20250;-72
2022/07/16 06:15:19;;;;;;;;;;;15.80;99.90;;;;;;5123310;28;19962;-72
2022/07/16 06:17:46;;;;;;;;;;;15.90;99.90;;;;;;5124396;28;19986;-72
2022/07/16 06:20:13;;;;;;;;;;;16.00;99.90;;;;;;5116979;28;19920;-72
2022/07/16 06:22:40;;;;;;;;;;;16.10;99.90;;;;;;5123159;28;20019;-72
2022/07/16 06:25:07;;;;;;;;;;;16.20;99.90;;;;;;5123957;28;19954;-72
2022/07/16 06:27:34;;;;;;;;;;;16.30;99.90;;;;;;5123262;28;19927;-72
2022/07/16 06:30:02;;;;;;;;;;;16.40;99.90;;;;;;5110093;28;19982;-72
2022/07/16 06:32:30;;;;;;;;;;;16.60;99.90;;;;;;5130330;28;19957;-72
2022/07/16 06:34:57;;;;;;;;;;;16.70;99.90;;;;;;5136546;27;19919;-72
2022/07/16 06:37:24;;;;;;;;;;;16.80;99.90;;;;;;5124127;28;19975;-72
2022/07/16 06:39:50;;;;;;;;;;;16.90;99.90;;;;;;5118556;28;20127;-72
2022/07/16 06:42:17;;;;;;;;;;;17.00;99.90;;;;;;5126651;28;20190;-72
2022/07/16 06:44:44;;;;;;;;;;;17.10;99.90;;;;;;5130176;28;19926;-72
2022/07/16 06:47:10;;;;;;;;;;;17.20;99.90;;;;;;5142753;28;19987;-72
2022/07/16 06:49:38;;;;;;;;;;;17.30;99.90;;;;;;5136443;28;19999;-72
2022/07/16 06:52:05;;;;;;;;;;;17.40;99.90;;;;;;5114989;28;19920;-72
2022/07/16 06:54:32;;;;;;;;;;;17.50;99.90;;;;;;5102665;28;19920;-72
2022/07/16 06:56:58;;;;;;;;;;;17.60;99.90;;;;;;5119065;28;19990;-73
2022/07/16 06:59:25;;;;;;;;;;;17.70;98.90;;;;;;5119415;28;19920;-72
2022/07/16 07:01:51;;;;;;;;;;;17.80;98.10;;;;;;5122552;28;19982;-72
2022/07/16 07:04:18;;;;;;;;;;;17.90;98.40;;;;;;5122382;28;19979;-72
2022/07/16 07:06:46;;;;;;;;;;;18.00;98.20;;;;;;5123443;28;20053;-72
2022/07/16 07:09:13;;;;;;;;;;;18.10;96.10;;;;;;5123273;28;20170;-73
2022/07/16 07:11:40;;;;;;;;;;;18.20;95.40;;;;;;5119571;28;19982;-71
2022/07/16 07:14:07;;;;;;;;;;;18.30;95.20;;;;;;5126446;28;19926;-71
2022/07/16 07:16:33;;;;;;;;;;;18.50;95.00;;;;;;5141925;28;19920;-71
2022/07/16 07:19:00;;;;;;;;;;;18.50;94.90;;;;;;5143846;28;19942;-71
2022/07/16 07:21:27;;;;;;;;;;;18.70;94.70;;;;;;5144140;28;19984;-71
2022/07/16 07:23:55;;;;;;;;;;;18.70;94.10;;;;;;5128540;28;19989;-71
2022/07/16 07:26:21;;;;;;;;;;;18.70;94.10;;;;;;5117505;28;19962;-72
2022/07/16 07:28:48;;;;;;;;;;;18.80;92.90;;;;;;5129080;28;19978;-71
2022/07/16 07:31:15;;;;;;;;;;;18.80;93.10;;;;;;5114477;28;19923;-72
2022/07/16 07:33:41;;;;;;;;;;;18.90;92.70;;;;;;5130363;27;19962;-72
2022/07/16 07:36:08;;;;;;;;;;;18.90;92.80;;;;;;5136017;27;19984;-71
2022/07/16 07:38:35;;;;;;;;;;;18.90;93.00;;;;;;5126453;27;19935;-72
2022/07/16 07:41:03;;;;;;;;;;;19.00;92.20;;;;;;5140516;27;19926;-71
2022/07/16 07:43:29;;;;;;;;;;;19.00;92.10;;;;;;5131041;27;19987;-72
2022/07/16 07:45:57;;;;;;;;;;;19.00;92.30;;;;;;5142224;27;19961;-72
2022/07/16 07:48:24;;;;;;;;;;;19.10;92.30;;;;;;5134364;27;21550;-75
2022/07/16 07:50:50;;;;;;;;;;;19.10;92.50;;;;;;5120657;28;19927;-71
2022/07/16 07:53:17;;;;;;;;;;;19.20;92.50;;;;;;5132730;27;20254;-73
2022/07/16 07:55:43;;;;;;;;;;;19.30;93.00;;;;;;5142255;27;19920;-72
2022/07/16 07:58:11;;;;;;;;;;;19.40;92.40;;;;;;5117706;28;19953;-72
2022/07/16 08:00:38;;;;;;;;;;;19.40;92.60;;;;;;5106816;28;20111;-73
2022/07/16 08:03:05;;;;;;;;;;;19.50;92.80;;;;;;5119514;28;19927;-72
2022/07/16 08:05:31;;;;;;;;;;;19.60;92.70;;;;;;5125302;27;19955;-73
2022/07/16 08:07:58;;;;;;;;;;;19.60;92.70;;;;;;5126045;27;19958;-72
2022/07/16 08:10:25;;;;;;;;;;;19.60;91.90;;;;;;5126426;28;19920;-71
2022/07/16 08:12:51;;;;;;;;;;;19.60;92.10;;;;;;5127123;27;19920;-72
2022/07/16 08:15:19;;;;;;;;;;;19.60;92.10;;;;;;5123385;28;19962;-72
2022/07/16 08:17:46;;;;;;;;;;;19.70;91.70;;;;;;5124357;28;19926;-72
2022/07/16 08:20:14;;;;;;;;;;;19.70;91.20;;;;;;5125803;28;19936;-72
2022/07/16 08:22:41;;;;;;;;;;;19.70;92.00;;;;;;5122473;27;19966;-73
2022/07/16 08:27:53;;;;;;;;;;;19.80;91.30;;;;;;5103628;28;20245;-73
2022/07/16 08:30:21;;;;;;;;;;;19.90;91.60;;;;;;5115269;27;19978;-72
2022/07/16 08:32:48;;;;;;;;;;;20.00;91.80;;;;;;5134151;27;19920;-71
2022/07/16 08:35:15;;;;;;;;;;;20.10;91.80;;;;;;5125866;28;19979;-73
2022/07/16 08:37:42;;;;;;;;;;;20.10;92.10;;;;;;5136990;27;20160;-73
2022/07/16 08:40:10;;;;;;;;;;;20.20;91.70;;;;;;5123637;28;19958;-73
2022/07/16 08:42:37;;;;;;;;;;;20.20;91.50;;;;;;5125283;28;19928;-73
2022/07/16 08:45:05;;;;;;;;;;;20.20;91.50;;;;;;5114060;27;19986;-72
2022/07/16 08:47:33;;;;;;;;;;;20.20;91.70;;;;;;5129940;27;19987;-72
2022/07/16 08:50:01;;;;;;;;;;;20.30;91.90;;;;;;5124198;28;19919;-71
2022/07/16 08:52:29;;;;;;;;;;;20.30;91.60;;;;;;5123440;28;20022;-72
2022/07/16 08:54:57;;;;;;;;;;;20.30;91.30;;;;;;5127658;27;19990;-71
2022/07/16 08:57:24;;;;;;;;;;;20.40;91.40;;;;;;5145391;27;20155;-72
2022/07/16 08:59:51;;;;;;;;;;;20.40;91.00;;;;;;5142629;27;19919;-72
2022/07/16 09:02:18;;;;;;;;;;;20.50;91.40;;;;;;5119791;27;19919;-73
2022/07/16 09:04:47;;;;;;;;;;;20.50;91.20;;;;;;5125221;28;19967;-73
2022/07/16 09:07:13;;;;;;;;;;;20.60;91.10;;;;;;5134569;27;19919;-73
2022/07/16 09:09:40;;;;;;;;;;;20.70;91.00;;;;;;5145798;27;19926;-74
2022/07/16 09:12:07;;;;;;;;;;;20.70;90.70;;;;;;5141387;27;19955;-73
2022/07/16 09:14:33;;;;;;;;;;;20.70;90.70;;;;;;5124356;28;19983;-73
2022/07/16 09:17:00;;;;;;;;;;;20.70;90.40;;;;;;5125977;27;19920;-73
2022/07/16 09:19:28;;;;;;;;;;;20.70;90.80;;;;;;5125037;28;20174;-72
2022/07/16 09:22:00;;;;;;;;;;;20.70;90.80;;;;;;5127475;27;19919;-72
2022/07/16 09:24:34;;;;;;;;;;;20.70;90.70;;;;;;5123895;27;19998;-72
2022/07/16 09:27:02;;;;;;;;;;;20.70;90.50;;;;;;5125553;27;19966;-71
2022/07/16 09:29:29;;;;;;;;;;;20.60;90.40;;;;;;5124623;28;19962;-72
2022/07/16 09:31:55;;;;;;;;;;;20.70;90.90;;;;;;5120359;27;19963;-72
2022/07/16 09:34:22;;;;;;;;;;;20.70;90.90;;;;;;5118450;28;20010;-71
2022/07/16 09:36:56;;;;;;;;;;;20.70;91.00;;;;;;5120235;28;19979;-72
2022/07/16 09:39:25;;;;;;;;;;;20.90;90.60;;;;;;5124517;28;19940;-73
2022/07/16 09:41:51;;;;;;;;;;;21.10;88.60;;;;;;5124541;28;19983;-72
2022/07/16 09:44:21;;;;;;;;;;;21.10;88.30;;;;;;5123385;28;20417;-74
2022/07/16 09:46:57;;;;;;;;;;;21.20;87.50;;;;;;5122825;27;19951;-72
2022/07/16 09:49:24;;;;;;;;;;;21.20;88.20;;;;;;5111630;28;19923;-73
2022/07/16 09:51:51;;;;;;;;;;;21.30;86.80;;;;;;5120292;28;19952;-73
2022/07/16 09:54:27;;;;;;;;;;;21.40;88.60;;;;;;5125720;27;19955;-73
2022/07/16 09:57:04;;;;;;;;;;;21.40;87.30;;;;;;5124361;27;19920;-73
2022/07/16 09:59:31;;;;;;;;;;;21.50;87.00;;;;;;5118971;28;19959;-73
2022/07/16 10:01:58;;;;;;;;;;;21.40;86.60;;;;;;5119477;28;19951;-72
2022/07/16 10:04:25;;;;;;;;;;;21.30;85.60;;;;;;5123020;28;19934;-73
2022/07/16 10:06:52;;;;;;;;;;;21.30;86.30;;;;;;5130916;27;19919;-74
2022/07/16 10:09:19;;;;;;;;;;;21.50;87.30;;;;;;5121739;27;19937;-73
2022/07/16 10:11:48;;;;;;;;;;;21.60;87.10;;;;;;5106899;27;19920;-73
2022/07/16 10:14:15;;;;;;;;;;;21.80;86.60;;;;;;5125189;27;20149;-73
2022/07/16 10:16:43;;;;;;;;;;;21.80;86.20;;;;;;5144297;27;19919;-74
2022/07/16 10:19:10;;;;;;;;;;;22.00;87.30;;;;;;5131235;27;19932;-74
2022/07/16 10:21:37;;;;;;;;;;;22.00;87.60;;;;;;5124061;28;19927;-72
2022/07/16 10:24:07;;;;;;;;;;;22.10;86.80;;;;;;5140528;27;20184;-73
2022/07/16 10:26:34;;;;;;;;;;;22.20;85.80;;;;;;5121065;27;19975;-73
2022/07/16 10:29:02;;;;;;;;;;;22.30;86.30;;;;;;5128559;27;19932;-74
2022/07/16 10:31:36;;;;;;;;;;;22.40;85.30;;;;;;5129722;28;19977;-73
2022/07/16 10:34:21;;;;;;;;;;;22.50;85.50;;;;;;5123040;27;19920;-74
2022/07/16 10:36:50;;;;;;;;;;;22.60;86.20;;;;;;5119127;28;19926;-75
2022/07/16 10:39:16;;;;;;;;;;;22.60;84.80;;;;;;5123629;28;19920;-74
2022/07/16 10:41:53;;;;;;;;;;;22.60;84.80;;;;;;5121341;28;20163;-71
2022/07/16 10:44:22;;;;;;;;;;;22.60;85.10;;;;;;5123306;28;20239;-74
2022/07/16 10:46:51;;;;;;;;;;;22.60;84.60;;;;;;5123383;28;19926;-74
2022/07/16 10:49:18;;;;;;;;;;;22.70;86.30;;;;;;5115728;28;20207;-74
2022/07/16 10:51:55;;;;;;;;;;;22.90;86.10;;;;;;5122576;28;19975;-73
2022/07/16 10:54:22;;;;;;;;;;;23.10;85.10;;;;;;5121384;28;19950;-73
2022/07/16 10:56:50;;;;;;;;;;;23.00;83.40;;;;;;5103250;28;19927;-74
2022/07/16 10:59:17;;;;;;;;;;;22.80;84.10;;;;;;5108790;28;20123;-74
2022/07/16 11:01:46;;;;;;;;;;;22.80;85.30;;;;;;5121167;28;20207;-74
2022/07/16 11:04:13;;;;;;;;;;;23.00;85.80;;;;;;5122982;28;19927;-74
2022/07/16 11:06:41;;;;;;;;;;;23.20;84.60;;;;;;5128883;28;19951;-73
2022/07/16 11:09:08;;;;;;;;;;;23.60;84.70;;;;;;5126679;28;19955;-74
2022/07/16 11:11:36;;;;;;;;;;;23.60;84.30;;;;;;5124494;27;19920;-73
2022/07/16 11:14:03;;;;;;;;;;;23.60;83.80;;;;;;5108670;28;19928;-74
2022/07/16 11:16:30;;;;;;;;;;;23.40;83.80;;;;;;5116189;27;19979;-74
2022/07/16 11:18:59;;;;;;;;;;;23.30;84.20;;;;;;5121218;28;19987;-72
2022/07/16 11:21:26;;;;;;;;;;;23.20;84.30;;;;;;5127041;27;19919;-73
2022/07/16 11:23:53;;;;;;;;;;;23.20;84.00;;;;;;5120915;28;19919;-72
2022/07/16 11:26:20;;;;;;;;;;;23.40;84.60;;;;;;5127234;27;19978;-74
2022/07/16 11:28:51;;;;;;;;;;;23.60;82.40;;;;;;5126567;28;19926;-73
2022/07/16 11:31:23;;;;;;;;;;;23.90;82.70;;;;;;5138400;27;19926;-73
2022/07/16 11:33:50;;;;;;;;;;;24.00;82.30;;;;;;5110454;28;20199;-76
2022/07/16 11:36:19;;;;;;;;;;;23.70;81.80;;;;;;5132261;27;20155;-74
2022/07/16 11:38:46;;;;;;;;;;;23.50;83.20;;;;;;5138936;27;19939;-71
2022/07/16 11:41:13;;;;;;;;;;;23.50;84.20;;;;;;5127935;27;19983;-71
2022/07/16 11:43:39;;;;;;;;;;;23.80;82.50;;;;;;5126516;28;19920;-72
2022/07/16 11:46:06;;;;;;;;;;;24.10;82.50;;;;;;5127074;28;19920;-71
2022/07/16 11:48:37;;;;;;;;;;;24.40;82.60;;;;;;5125439;28;19951;-70
2022/07/16 11:51:07;;;;;;;;;;;24.70;82.40;;;;;;5130158;27;19927;-71
2022/07/16 11:53:37;;;;;;;;;;;24.70;81.30;;;;;;5133669;27;19928;-72
2022/07/16 11:56:04;;;;;;;;;;;24.60;81.10;;;;;;5126241;27;19920;-71
2022/07/16 11:58:31;;;;;;;;;;;24.40;82.10;;;;;;5129013;27;19919;-71
2022/07/16 12:00:57;;;;;;;;;;;24.20;82.00;;;;;;5132673;28;20254;-71
2022/07/16 12:03:24;;;;;;;;;;;24.30;82.00;;;;;;5125803;28;20227;-71
2022/07/16 12:05:59;;;;;;;;;;;24.20;82.60;;;;;;5125599;28;19979;-71
2022/07/16 12:08:27;;;;;;;;;;;24.30;82.00;;;;;;5142325;27;19955;-72
2022/07/16 12:10:59;;;;;;;;;;;24.60;81.40;;;;;;5129474;27;19919;-71
2022/07/16 12:13:26;;;;;;;;;;;25.00;80.70;;;;;;5137208;27;20282;-72
2022/07/16 12:15:53;;;;;;;;;;;25.20;80.70;;;;;;5129181;27;19928;-72
2022/07/16 12:18:20;;;;;;;;;;;25.20;80.50;;;;;;5140869;27;19920;-72
2022/07/16 12:20:46;;;;;;;;;;;25.20;79.50;;;;;;5123273;27;19920;-74
2022/07/16 12:23:14;;;;;;;;;;;25.10;80.10;;;;;;5124119;28;19951;-74
2022/07/16 12:25:41;;;;;;;;;;;25.10;80.00;;;;;;5127347;27;19920;-74
2022/07/16 12:28:10;;;;;;;;;;;24.80;80.90;;;;;;5126153;28;19928;-73
2022/07/16 12:30:38;;;;;;;;;;;24.60;80.10;;;;;;5125861;27;19955;-73
2022/07/16 12:33:06;;;;;;;;;;;24.50;81.00;;;;;;5125512;28;20104;-73
2022/07/16 12:35:36;;;;;;;;;;;24.70;81.80;;;;;;5126355;27;19920;-73
2022/07/16 12:38:03;;;;;;;;;;;25.10;80.30;;;;;;5122140;28;19926;-72
2022/07/16 12:40:30;;;;;;;;;;;25.20;79.80;;;;;;5120813;28;20101;-72
2022/07/16 12:42:57;;;;;;;;;;;25.00;78.70;;;;;;5122696;27;20243;-72
2022/07/16 12:45:26;;;;;;;;;;;25.10;79.40;;;;;;5116363;28;19942;-72
2022/07/16 12:47:52;;;;;;;;;;;25.30;79.00;;;;;;5120916;27;19920;-72
2022/07/16 12:50:19;;;;;;;;;;;25.20;79.80;;;;;;5128871;27;19962;-71
2022/07/16 12:52:46;;;;;;;;;;;25.50;78.60;;;;;;5123829;27;19947;-71
2022/07/16 13:00:42;;;;;;;;;;;25.20;78.80;;;;;;5132660;27;19927;-71
2022/07/16 13:03:09;;;;;;;;;;;25.00;78.60;;;;;;5124568;28;19958;-73
2022/07/16 13:05:35;;;;;;;;;;;24.90;78.10;;;;;;5120258;27;19935;-71
2022/07/16 13:08:02;;;;;;;;;;;25.00;77.90;;;;;;5124201;28;20156;-71
2022/07/16 14:48:11;;;;;;;;;;;26.80;71.80;;;;;;5120110;28;19929;-70
2022/07/16 14:50:38;;;;;;;;;;;26.70;73.30;;;;;;5114021;28;20187;-71
2022/07/16 14:53:05;;;;;;;;;;;26.70;72.70;;;;;;5126225;28;19963;-71
2022/07/16 14:55:32;;;;;;;;;;;26.80;73.40;;;;;;5127116;28;19920;-70
2022/07/16 14:57:58;;;;;;;;;;;26.70;74.00;;;;;;5126755;28;19920;-70
2022/07/16 15:00:26;;;;;;;;;;;26.70;73.10;;;;;;5121887;28;20108;-71
2022/07/16 15:02:53;;;;;;;;;;;26.50;73.90;;;;;;5130037;28;19951;-72
2022/07/16 15:05:21;;;;;;;;;;;26.30;73.80;;;;;;5130214;27;19927;-71
2022/07/16 15:07:50;;;;;;;;;;;26.20;74.60;;;;;;5128692;28;20293;-71
2022/07/16 15:10:17;;;;;;;;;;;26.40;74.60;;;;;;5128193;27;19926;-72
2022/07/16 15:12:43;;;;;;;;;;;26.60;74.40;;;;;;5133617;27;19927;-76
2022/07/16 15:15:10;;;;;;;;;;;26.80;73.20;;;;;;5130830;28;20160;-72
2022/07/16 15:17:37;;;;;;;;;;;27.00;73.00;;;;;;5130628;28;19986;-72
2022/07/16 15:20:08;;;;;;;;;;;27.10;72.90;;;;;;5130180;28;19995;-72
2022/07/16 15:22:36;;;;;;;;;;;27.10;72.10;;;;;;5129756;28;19920;-72
2022/07/16 15:25:03;;;;;;;;;;;26.80;72.70;;;;;;5128982;28;19949;-72
2022/07/16 15:27:30;;;;;;;;;;;26.70;72.70;;;;;;5129184;27;20219;-72
2022/07/16 15:29:57;;;;;;;;;;;26.50;72.10;;;;;;5129964;28;19920;-72
2022/07/16 15:32:23;;;;;;;;;;;26.60;73.30;;;;;;5128574;27;20227;-71
2022/07/16 15:34:50;;;;;;;;;;;26.50;72.60;;;;;;5129909;28;19920;-72
2022/07/16 15:37:17;;;;;;;;;;;26.40;72.90;;;;;;5125286;28;20228;-70
2022/07/16 15:39:45;;;;;;;;;;;26.30;73.20;;;;;;5123776;27;19919;-71
2022/07/16 15:42:12;;;;;;;;;;;26.40;73.30;;;;;;5110152;28;19920;-71
2022/07/16 15:44:39;;;;;;;;;;;26.30;73.60;;;;;;5130111;28;19947;-71
2022/07/16 15:47:06;;;;;;;;;;;26.40;74.40;;;;;;5131552;27;19931;-71
2022/07/16 15:49:33;;;;;;;;;;;26.20;73.60;;;;;;5129222;27;19999;-71
2022/07/16 15:51:59;;;;;;;;;;;26.10;74.80;;;;;;5129413;28;19957;-71
2022/07/16 15:54:27;;;;;;;;;;;25.90;74.90;;;;;;5134611;27;19986;-71
2022/07/16 15:56:55;;;;;;;;;;;26.00;74.40;;;;;;5147442;27;19919;-70
2022/07/16 15:59:22;;;;;;;;;;;26.00;75.00;;;;;;5140930;27;19919;-71
2022/07/16 16:01:48;;;;;;;;;;;25.80;74.10;;;;;;5126159;27;19954;-71
2022/07/16 16:04:15;;;;;;;;;;;25.80;74.90;;;;;;5125549;27;19927;-71
2022/07/16 16:06:43;;;;;;;;;;;26.00;75.40;;;;;;5125454;28;19919;-71